createdAt,value
2023-10-12T00:00:29.552Z,83.78
2023-10-12T00:01:29.327Z,85.03
2023-10-12T00:02:29.396Z,85.61
2023-10-12T00:03:29.328Z,85.13
2023-10-12T00:04:29.290Z,85.61
2023-10-12T00:05:29.256Z,86.09
2023-10-12T00:06:29.280Z,85.89
2023-10-12T00:07:29.256Z,87.15
2023-10-12T00:08:29.310Z,86.95
2023-10-12T00:09:29.293Z,87.05
2023-10-12T00:10:29.258Z,87.05
2023-10-12T00:11:29.249Z,87.15
2023-10-12T00:12:29.291Z,87.49
2023-10-12T00:13:29.246Z,87.49
2023-10-12T00:14:29.247Z,87.68
2023-10-12T00:15:29.258Z,87.49
2023-10-12T00:16:29.288Z,87.77
2023-10-12T00:17:29.278Z,88.35
2023-10-12T00:18:29.264Z,88.45
2023-10-12T00:19:29.240Z,88.25
2023-10-12T00:20:29.242Z,88.54
2023-10-12T00:21:29.281Z,89.02
2023-10-12T00:22:29.240Z,88.35
2023-10-12T00:23:29.242Z,88.54
2023-10-12T00:24:29.283Z,88.54
2023-10-12T00:25:29.234Z,88.35
2023-10-12T00:26:29.237Z,89.31
2023-10-12T00:27:29.304Z,89.40
2023-10-12T00:28:29.249Z,89.40
2023-10-12T00:29:29.237Z,89.02
2023-10-12T00:30:29.255Z,89.40
2023-10-12T00:31:29.254Z,89.79
2023-10-12T00:32:29.284Z,89.60
2023-10-12T00:33:29.235Z,90.08
2023-10-12T00:34:29.224Z,89.98
2023-10-12T00:35:29.234Z,90.37
2023-10-12T00:36:29.249Z,90.84
2023-10-12T00:37:29.222Z,91.04
2023-10-12T00:38:29.219Z,91.33
2023-10-12T00:39:29.231Z,91.71
2023-10-12T00:40:29.243Z,92.10
2023-10-12T00:41:29.215Z,92.96
2023-10-12T00:42:29.238Z,92.91
2023-10-12T00:43:29.252Z,93.10
2023-10-12T00:44:29.214Z,93.68
2023-10-12T00:45:29.277Z,93.68
2023-10-12T00:46:29.271Z,93.87
2023-10-12T00:47:29.244Z,93.87
2023-10-12T00:48:29.249Z,94.16
2023-10-12T00:49:29.250Z,93.87
2023-10-12T00:50:29.208Z,94.54
2023-10-12T00:51:29.231Z,94.64
2023-10-12T00:52:29.211Z,95.12
2023-10-12T00:53:29.203Z,95.41
2023-10-12T00:54:29.500Z,95.03
2023-10-12T00:55:29.203Z,95.12
2023-10-12T00:56:29.254Z,95.50
2023-10-12T00:57:29.244Z,95.65
2023-10-12T00:58:29.198Z,95.70
2023-10-12T00:59:29.202Z,95.60
2023-10-12T01:00:29.218Z,95.65
2023-10-12T01:01:29.198Z,96.32
2023-10-12T01:02:29.235Z,96.08
2023-10-12T01:03:29.224Z,96.13
2023-10-12T01:04:29.193Z,95.94
2023-10-12T01:05:29.243Z,96.13
2023-10-12T01:06:29.350Z,95.94
2023-10-12T01:07:29.188Z,96.70
2023-10-12T01:08:29.190Z,96.32
2023-10-12T01:09:29.201Z,96.89
2023-10-12T01:10:29.241Z,96.32
2023-10-12T01:11:29.178Z,96.80
2023-10-12T01:12:29.218Z,96.32
2023-10-12T01:13:29.172Z,95.55
2023-10-12T01:14:29.178Z,96.42
2023-10-12T01:15:29.180Z,96.61
2023-10-12T01:16:29.200Z,96.42
2023-10-12T01:17:29.204Z,96.51
2023-10-12T01:18:29.208Z,96.70
2023-10-12T01:19:29.172Z,97.28
2023-10-12T01:20:29.176Z,96.80
2023-10-12T01:21:29.171Z,96.32
2023-10-12T01:22:29.171Z,96.13
2023-10-12T01:23:29.167Z,96.32
2023-10-12T01:24:29.175Z,96.51
2023-10-12T01:25:29.231Z,96.32
2023-10-12T01:26:29.162Z,96.42
2023-10-12T01:27:29.240Z,96.70
2023-10-12T01:28:29.171Z,96.61
2023-10-12T01:29:29.162Z,96.32
2023-10-12T01:30:29.191Z,96.22
2023-10-12T01:31:29.228Z,96.80
2023-10-12T01:32:29.304Z,95.94
2023-10-12T01:33:29.168Z,95.94
2023-10-12T01:34:29.150Z,95.94
2023-10-12T01:35:29.143Z,95.84
2023-10-12T01:36:29.201Z,96.80
2023-10-12T01:37:29.137Z,96.51
2023-10-12T01:38:29.144Z,96.32
2023-10-12T01:39:29.191Z,96.89
2023-10-12T01:40:29.192Z,96.99
2023-10-12T01:41:29.130Z,97.28
2023-10-12T01:42:29.149Z,97.04
2023-10-12T01:43:29.126Z,96.66
2023-10-12T01:44:29.156Z,97.47
2023-10-12T01:45:29.161Z,96.94
2023-10-12T01:46:29.218Z,98.05
2023-10-12T01:47:29.138Z,96.94
2023-10-12T01:48:29.133Z,97.04
2023-10-12T01:49:29.112Z,96.99
2023-10-12T01:50:29.163Z,97.19
2023-10-12T01:51:29.147Z,96.47
2023-10-12T01:52:29.111Z,97.23
2023-10-12T01:53:29.130Z,96.94
2023-10-12T01:54:29.126Z,97.28
2023-10-12T01:55:29.122Z,97.23
2023-10-12T01:56:29.102Z,97.23
2023-10-12T01:57:29.126Z,97.04
2023-10-12T01:58:29.455Z,96.85
2023-10-12T01:59:29.094Z,97.42
2023-10-12T02:00:29.208Z,97.81
2023-10-12T02:01:29.133Z,97.23
2023-10-12T02:02:29.107Z,97.90
2023-10-12T02:03:29.102Z,98.10
2023-10-12T02:04:29.138Z,97.61
2023-10-12T02:05:29.088Z,97.71
2023-10-12T02:06:29.098Z,97.52
2023-10-12T02:07:29.081Z,98.38
2023-10-12T02:08:29.079Z,97.71
2023-10-12T02:09:29.134Z,98.00
2023-10-12T02:10:29.076Z,98.10
2023-10-12T02:11:29.077Z,98.10
2023-10-12T02:12:29.094Z,98.67
2023-10-12T02:13:29.069Z,98.96
2023-10-12T02:14:29.069Z,98.48
2023-10-12T02:15:29.074Z,98.86
2023-10-12T02:16:29.171Z,99.34
2023-10-12T02:17:29.086Z,99.24
2023-10-12T02:18:29.071Z,99.53
2023-10-12T02:19:29.057Z,99.53
2023-10-12T02:20:29.055Z,99.73
2023-10-12T02:21:29.097Z,99.99
2023-10-12T02:22:29.051Z,99.99
2023-10-12T02:23:29.053Z,99.99
2023-10-12T02:24:29.082Z,99.99
2023-10-12T02:25:29.054Z,99.99
2023-10-12T02:26:29.043Z,99.99
2023-10-12T02:27:29.092Z,99.99
2023-10-12T02:28:29.038Z,99.99
2023-10-12T02:29:29.043Z,99.99
2023-10-12T02:30:29.141Z,99.99
2023-10-12T02:31:29.072Z,99.99
2023-10-12T02:32:29.103Z,99.99
2023-10-12T02:33:29.080Z,99.99
2023-10-12T02:34:29.033Z,99.99
2023-10-12T02:35:29.025Z,99.99
2023-10-12T02:36:29.052Z,99.99
2023-10-12T02:37:29.022Z,99.99
2023-10-12T02:38:29.025Z,99.99
2023-10-12T02:39:29.269Z,99.99
2023-10-12T02:40:29.012Z,99.99
2023-10-12T02:41:29.014Z,99.99
2023-10-12T02:42:29.018Z,99.99
2023-10-12T02:43:29.028Z,99.99
2023-10-12T02:44:29.003Z,99.99
2023-10-12T02:45:29.090Z,99.99
2023-10-12T02:46:29.168Z,99.99
2023-10-12T02:47:29.013Z,99.99
2023-10-12T02:48:29.052Z,99.99
2023-10-12T02:49:28.989Z,99.99
2023-10-12T02:50:29.007Z,99.99
2023-10-12T02:51:28.997Z,99.99
2023-10-12T02:52:28.985Z,99.99
2023-10-12T02:53:28.982Z,99.99
2023-10-12T02:54:29.004Z,99.99
2023-10-12T02:55:28.974Z,99.99
2023-10-12T02:56:28.970Z,99.99
2023-10-12T02:57:28.998Z,99.99
2023-10-12T02:58:28.970Z,99.99
2023-10-12T02:59:28.968Z,99.99
2023-10-12T03:00:28.976Z,99.99
2023-10-12T03:01:29.008Z,99.99
2023-10-12T03:02:29.041Z,99.99
2023-10-12T03:03:29.552Z,99.99
2023-10-12T03:04:29.009Z,99.99
2023-10-12T03:05:29.011Z,99.99
2023-10-12T03:06:29.003Z,99.99
2023-10-12T03:07:28.958Z,99.99
2023-10-12T03:08:28.945Z,99.99
2023-10-12T03:09:28.959Z,99.99
2023-10-12T03:10:28.940Z,99.99
2023-10-12T03:11:28.951Z,99.99
2023-10-12T03:12:28.975Z,99.99
2023-10-12T03:13:28.935Z,99.99
2023-10-12T03:14:28.930Z,99.99
2023-10-12T03:15:28.964Z,99.99
2023-10-12T03:16:29.002Z,99.99
2023-10-12T03:17:28.941Z,99.99
2023-10-12T03:18:28.956Z,99.99
2023-10-12T03:19:28.921Z,99.99
2023-10-12T03:20:28.940Z,99.99
2023-10-12T03:21:29.331Z,99.99
2023-10-12T03:22:28.913Z,99.99
2023-10-12T03:23:28.911Z,99.99
2023-10-12T03:24:28.909Z,99.99
2023-10-12T03:25:28.915Z,99.99
2023-10-12T03:26:28.906Z,99.99
2023-10-12T03:27:28.947Z,99.99
2023-10-12T03:28:28.895Z,99.99
2023-10-12T03:29:28.897Z,99.99
2023-10-12T03:30:28.935Z,99.99
2023-10-12T03:31:28.924Z,99.99
2023-10-12T03:32:28.921Z,99.99
2023-10-12T03:33:28.941Z,99.99
2023-10-12T03:34:28.882Z,99.99
2023-10-12T03:35:28.882Z,99.99
2023-10-12T03:36:28.911Z,99.99
2023-10-12T03:37:28.881Z,99.99
2023-10-12T03:38:28.870Z,99.99
2023-10-12T03:39:29.181Z,99.99
2023-10-12T03:40:28.868Z,99.99
2023-10-12T03:41:28.870Z,99.99
2023-10-12T03:42:28.981Z,99.99
2023-10-12T03:43:28.860Z,99.99
2023-10-12T03:44:28.854Z,99.99
2023-10-12T03:45:28.919Z,99.99
2023-10-12T03:46:29.020Z,99.99
2023-10-12T03:47:28.872Z,99.99
2023-10-12T03:48:28.919Z,99.99
2023-10-12T03:49:28.846Z,99.99
2023-10-12T03:50:28.847Z,99.99
2023-10-12T03:51:28.915Z,99.99
2023-10-12T03:52:28.868Z,99.99
2023-10-12T03:53:28.955Z,99.99
2023-10-12T03:54:28.867Z,99.99
2023-10-12T03:55:28.932Z,99.99
2023-10-12T03:56:28.827Z,99.99
2023-10-12T03:57:28.872Z,99.99
2023-10-12T03:58:28.828Z,99.99
2023-10-12T03:59:28.820Z,99.99
2023-10-12T04:00:28.823Z,99.99
2023-10-12T04:01:28.895Z,99.99
2023-10-12T04:02:28.831Z,99.99
2023-10-12T04:03:29.010Z,99.99
2023-10-12T04:04:28.852Z,99.99
2023-10-12T04:05:28.814Z,99.99
2023-10-12T04:06:28.869Z,99.99
2023-10-12T04:07:28.799Z,99.99
2023-10-12T04:08:28.816Z,99.99
2023-10-12T04:09:28.805Z,99.99
2023-10-12T04:10:28.789Z,99.99
2023-10-12T04:11:28.786Z,99.99
2023-10-12T04:12:31.757Z,99.99
2023-10-12T04:13:29.134Z,99.99
2023-10-12T04:14:28.782Z,99.99
2023-10-12T04:15:28.863Z,99.99
2023-10-12T04:16:28.935Z,99.99
2023-10-12T04:17:28.849Z,99.99
2023-10-12T04:18:28.797Z,99.99
2023-10-12T04:19:28.771Z,99.99
2023-10-12T04:20:28.763Z,99.99
2023-10-12T04:21:28.777Z,99.99
2023-10-12T04:22:28.766Z,99.99
2023-10-12T04:23:28.763Z,99.99
2023-10-12T04:24:28.911Z,99.99
2023-10-12T04:25:28.758Z,99.99
2023-10-12T04:26:28.762Z,99.99
2023-10-12T04:27:28.751Z,99.99
2023-10-12T04:28:28.743Z,99.99
2023-10-12T04:29:28.745Z,99.99
2023-10-12T04:30:28.755Z,99.99
2023-10-12T04:31:28.822Z,99.99
2023-10-12T04:32:28.782Z,99.99
2023-10-12T04:33:28.758Z,99.99
2023-10-12T04:34:28.730Z,99.99
2023-10-12T04:35:28.767Z,99.99
2023-10-12T04:36:28.787Z,99.99
2023-10-12T04:37:28.751Z,99.99
2023-10-12T04:38:28.737Z,99.99
2023-10-12T04:39:28.797Z,99.99
2023-10-12T04:40:28.740Z,99.99
2023-10-12T04:41:28.707Z,99.99
2023-10-12T04:42:28.748Z,99.99
2023-10-12T04:43:28.704Z,99.99
2023-10-12T04:44:28.697Z,99.99
2023-10-12T04:45:28.758Z,99.99
2023-10-12T04:46:28.728Z,99.99
2023-10-12T04:47:28.718Z,99.99
2023-10-12T04:48:28.740Z,99.99
2023-10-12T04:49:28.691Z,99.99
2023-10-12T04:50:28.866Z,99.99
2023-10-12T04:51:28.739Z,99.99
2023-10-12T04:52:28.679Z,99.99
2023-10-12T04:53:28.678Z,99.99
2023-10-12T04:54:28.682Z,99.99
2023-10-12T04:55:28.677Z,99.99
2023-10-12T04:56:28.799Z,99.99
2023-10-12T04:57:28.915Z,99.99
2023-10-12T04:58:28.666Z,99.99
2023-10-12T04:59:28.665Z,99.99
2023-10-12T05:00:28.692Z,99.99
2023-10-12T05:01:28.791Z,99.99
2023-10-12T05:02:29.485Z,99.99
2023-10-12T05:03:28.756Z,99.99
2023-10-12T05:04:28.733Z,99.99
2023-10-12T05:05:28.655Z,99.99
2023-10-12T05:06:28.690Z,99.99
2023-10-12T05:07:28.672Z,99.99
2023-10-12T05:08:28.644Z,99.99
2023-10-12T05:09:28.682Z,99.99
2023-10-12T05:10:28.634Z,99.99
2023-10-12T05:11:28.640Z,99.99
2023-10-12T05:12:28.676Z,99.99
2023-10-12T05:13:28.627Z,99.99
2023-10-12T05:14:28.625Z,99.99
2023-10-12T05:15:28.697Z,99.99
2023-10-12T05:16:28.654Z,99.99
2023-10-12T05:17:28.671Z,99.99
2023-10-12T05:18:28.631Z,99.99
2023-10-12T05:19:28.610Z,99.99
2023-10-12T05:20:28.625Z,99.99
2023-10-12T05:21:28.685Z,99.99
2023-10-12T05:22:28.718Z,99.99
2023-10-12T05:23:28.606Z,99.99
2023-10-12T05:24:28.620Z,99.99
2023-10-12T05:25:28.601Z,99.99
2023-10-12T05:26:28.616Z,99.99
2023-10-12T05:27:28.655Z,99.99
2023-10-12T05:28:28.715Z,99.99
2023-10-12T05:29:28.599Z,99.99
2023-10-12T05:30:28.674Z,99.99
2023-10-12T05:31:28.641Z,99.99
2023-10-12T05:32:28.610Z,99.99
2023-10-12T05:33:28.612Z,99.99
2023-10-12T05:34:28.581Z,99.99
2023-10-12T05:35:28.583Z,99.99
2023-10-12T05:36:28.590Z,99.99
2023-10-12T05:37:28.716Z,99.99
2023-10-12T05:38:28.576Z,99.99
2023-10-12T05:39:28.590Z,99.99
2023-10-12T05:40:28.563Z,99.99
2023-10-12T05:41:28.560Z,99.99
2023-10-12T05:42:28.578Z,99.99
2023-10-12T05:43:28.549Z,99.99
2023-10-12T05:44:28.594Z,99.99
2023-10-12T05:45:28.572Z,99.99
2023-10-12T05:46:28.570Z,99.99
2023-10-12T05:47:28.592Z,99.99
2023-10-12T05:48:28.628Z,99.99
2023-10-12T05:49:28.550Z,99.99
2023-10-12T05:50:28.536Z,99.99
2023-10-12T05:51:28.584Z,99.99
2023-10-12T05:52:28.554Z,99.99
2023-10-12T05:53:28.531Z,99.99
2023-10-12T05:54:28.529Z,99.99
2023-10-12T05:55:28.537Z,99.99
2023-10-12T05:56:28.523Z,99.99
2023-10-12T05:57:28.534Z,99.99
2023-10-12T05:58:28.519Z,99.99
2023-10-12T05:59:28.524Z,99.99
2023-10-12T06:00:28.622Z,99.99
2023-10-12T06:01:41.498Z,99.99
2023-10-12T06:02:28.576Z,99.99
2023-10-12T06:03:28.591Z,99.99
2023-10-12T06:04:28.628Z,99.99
2023-10-12T06:05:28.502Z,99.99
2023-10-12T06:06:28.645Z,99.99
2023-10-12T06:07:28.506Z,99.99
2023-10-12T06:08:28.507Z,99.99
2023-10-12T06:09:28.624Z,99.99
2023-10-12T06:10:28.490Z,99.99
2023-10-12T06:11:28.491Z,99.99
2023-10-12T06:12:28.485Z,99.99
2023-10-12T06:13:28.532Z,99.99
2023-10-12T06:14:28.476Z,99.99
2023-10-12T06:15:28.484Z,99.99
2023-10-12T06:16:29.160Z,99.99
2023-10-12T06:17:28.481Z,99.99
2023-10-12T06:18:28.466Z,99.99
2023-10-12T06:19:28.802Z,99.99
2023-10-12T06:20:28.468Z,99.99
2023-10-12T06:21:28.462Z,99.99
2023-10-12T06:22:28.460Z,99.99
2023-10-12T06:23:28.463Z,99.99
2023-10-12T06:24:28.459Z,99.99
2023-10-12T06:25:28.453Z,99.99
2023-10-12T06:26:28.457Z,99.99
2023-10-12T06:27:28.449Z,99.99
2023-10-12T06:28:28.446Z,99.99
2023-10-12T06:29:28.436Z,99.99
2023-10-12T06:30:28.479Z,99.99
2023-10-12T06:31:28.547Z,99.99
2023-10-12T06:32:28.667Z,99.99
2023-10-12T06:33:28.477Z,99.99
2023-10-12T06:34:28.428Z,99.99
2023-10-12T06:35:28.429Z,99.99
2023-10-12T06:36:28.423Z,99.99
2023-10-12T06:37:28.414Z,99.99
2023-10-12T06:38:28.419Z,99.99
2023-10-12T06:39:28.421Z,99.99
2023-10-12T06:40:28.410Z,99.99
2023-10-12T06:41:28.922Z,99.99
2023-10-12T06:42:28.423Z,99.99
2023-10-12T06:43:28.408Z,99.99
2023-10-12T06:44:28.411Z,99.99
2023-10-12T06:45:28.400Z,99.99
2023-10-12T06:46:28.494Z,99.99
2023-10-12T06:47:28.491Z,99.99
2023-10-12T06:48:28.652Z,99.99
2023-10-12T06:49:28.389Z,99.99
2023-10-12T06:50:28.436Z,99.99
2023-10-12T06:51:28.387Z,99.99
2023-10-12T06:52:28.381Z,99.99
2023-10-12T06:53:28.376Z,99.99
2023-10-12T06:54:28.382Z,99.99
2023-10-12T06:55:28.375Z,99.99
2023-10-12T06:56:28.381Z,99.99
2023-10-12T06:57:28.366Z,99.99
2023-10-12T06:58:28.360Z,99.99
2023-10-12T06:59:28.369Z,99.99
2023-10-12T07:00:28.353Z,99.99
2023-10-12T07:01:28.391Z,99.99
2023-10-12T07:02:28.352Z,99.99
2023-10-12T07:03:28.365Z,99.99
2023-10-12T07:04:28.495Z,99.99
2023-10-12T07:05:28.346Z,99.99
2023-10-12T07:06:28.332Z,99.99
2023-10-12T07:07:28.365Z,99.99
2023-10-12T07:08:28.334Z,99.99
2023-10-12T07:09:28.334Z,99.99
2023-10-12T07:10:28.346Z,99.99
2023-10-12T07:11:28.322Z,99.99
2023-10-12T07:12:28.326Z,99.99
2023-10-12T07:13:28.322Z,99.99
2023-10-12T07:14:28.489Z,99.99
2023-10-12T07:15:28.314Z,99.99
2023-10-12T07:16:28.411Z,99.99
2023-10-12T07:17:28.346Z,99.99
2023-10-12T07:18:28.305Z,99.99
2023-10-12T07:19:28.347Z,99.99
2023-10-12T07:20:28.345Z,99.99
2023-10-12T07:21:28.303Z,99.99
2023-10-12T07:22:28.306Z,99.99
2023-10-12T07:23:28.294Z,99.99
2023-10-12T07:24:28.291Z,99.99
2023-10-12T07:25:28.347Z,99.99
2023-10-12T07:26:28.287Z,99.99
2023-10-12T07:27:28.281Z,99.99
2023-10-12T07:28:28.335Z,99.99
2023-10-12T07:29:28.283Z,99.99
2023-10-12T07:30:28.276Z,99.99
2023-10-12T07:31:28.295Z,99.99
2023-10-12T07:32:28.312Z,99.99
2023-10-12T07:33:28.272Z,99.99
2023-10-12T07:34:28.260Z,99.99
2023-10-12T07:35:28.259Z,99.99
2023-10-12T07:36:28.291Z,99.99
2023-10-12T07:37:28.252Z,99.99
2023-10-12T07:38:28.245Z,99.99
2023-10-12T07:39:28.249Z,99.99
2023-10-12T07:40:28.241Z,99.99
2023-10-12T07:41:28.247Z,99.99
2023-10-12T07:42:28.244Z,99.99
2023-10-12T07:43:28.265Z,99.99
2023-10-12T07:44:28.233Z,99.99
2023-10-12T07:45:28.246Z,99.99
2023-10-12T07:46:28.285Z,99.99
2023-10-12T07:47:28.278Z,99.99
2023-10-12T07:48:28.225Z,99.99
2023-10-12T07:49:28.224Z,99.99
2023-10-12T07:50:28.216Z,99.99
2023-10-12T07:51:28.217Z,99.99
2023-10-12T07:52:30.463Z,99.99
2023-10-12T07:53:28.207Z,99.99
2023-10-12T07:54:28.207Z,99.99
2023-10-12T07:55:28.201Z,99.99
2023-10-12T07:56:28.203Z,99.99
2023-10-12T07:57:28.199Z,99.99
2023-10-12T07:58:28.204Z,99.99
2023-10-12T07:59:28.221Z,99.99
2023-10-12T08:00:28.188Z,99.99
2023-10-12T08:01:28.244Z,99.99
2023-10-12T08:02:28.204Z,99.99
2023-10-12T08:03:28.243Z,99.99
2023-10-12T08:04:28.231Z,99.99
2023-10-12T08:05:28.175Z,99.99
2023-10-12T08:06:28.184Z,99.99
2023-10-12T08:07:28.224Z,99.99
2023-10-12T08:08:28.206Z,99.99
2023-10-12T08:09:28.223Z,99.99
2023-10-12T08:10:28.158Z,99.99
2023-10-12T08:11:28.154Z,99.99
2023-10-12T08:12:28.172Z,99.99
2023-10-12T08:13:28.154Z,99.99
2023-10-12T08:14:28.154Z,99.99
2023-10-12T08:15:28.150Z,99.99
2023-10-12T08:16:28.238Z,99.99
2023-10-12T08:17:28.170Z,99.99
2023-10-12T08:18:28.139Z,99.99
2023-10-12T08:19:28.591Z,99.99
2023-10-12T08:20:28.141Z,99.99
2023-10-12T08:21:28.133Z,99.99
2023-10-12T08:22:28.190Z,99.99
2023-10-12T08:23:28.127Z,99.99
2023-10-12T08:24:28.142Z,99.99
2023-10-12T08:25:28.117Z,99.99
2023-10-12T08:26:28.123Z,99.99
2023-10-12T08:27:28.140Z,99.99
2023-10-12T08:28:28.135Z,99.99
2023-10-12T08:29:28.107Z,99.99
2023-10-12T08:30:28.108Z,99.99
2023-10-12T08:31:28.156Z,99.99
2023-10-12T08:32:28.187Z,99.99
2023-10-12T08:33:28.101Z,99.99
2023-10-12T08:34:28.095Z,99.99
2023-10-12T08:35:28.096Z,99.99
2023-10-12T08:36:28.100Z,99.99
2023-10-12T08:37:28.243Z,99.99
2023-10-12T08:38:28.136Z,99.99
2023-10-12T08:39:40.163Z,99.99
2023-10-12T08:40:28.134Z,99.99
2023-10-12T08:41:28.099Z,99.99
2023-10-12T08:42:28.070Z,99.99
2023-10-12T08:43:28.074Z,99.99
2023-10-12T08:44:28.064Z,99.99
2023-10-12T08:45:28.178Z,99.99
2023-10-12T08:46:28.199Z,99.99
2023-10-12T08:47:28.059Z,99.99
2023-10-12T08:48:28.049Z,99.99
2023-10-12T08:49:28.048Z,99.99
2023-10-12T08:50:28.071Z,99.99
2023-10-12T08:51:28.039Z,99.99
2023-10-12T08:52:28.042Z,99.99
2023-10-12T08:53:28.031Z,99.99
2023-10-12T08:54:28.032Z,99.99
2023-10-12T08:55:28.029Z,99.99
2023-10-12T08:56:28.050Z,99.99
2023-10-12T08:57:28.221Z,99.99
2023-10-12T08:58:28.028Z,99.99
2023-10-12T08:59:28.028Z,99.99
2023-10-12T09:00:28.011Z,99.99
2023-10-12T09:01:28.153Z,99.99
2023-10-12T09:02:28.024Z,99.99
2023-10-12T09:03:28.017Z,99.99
2023-10-12T09:04:28.170Z,99.99
2023-10-12T09:05:27.997Z,99.99
2023-10-12T09:06:27.995Z,99.99
2023-10-12T09:07:27.994Z,99.99
2023-10-12T09:08:27.991Z,99.99
2023-10-12T09:09:27.987Z,99.99
2023-10-12T09:10:27.984Z,99.99
2023-10-12T09:11:28.077Z,99.99
2023-10-12T09:12:28.012Z,99.99
2023-10-12T09:13:28.213Z,99.99
2023-10-12T09:14:27.971Z,99.99
2023-10-12T09:15:27.967Z,99.99
2023-10-12T09:16:28.201Z,99.99
2023-10-12T09:17:28.267Z,99.99
2023-10-12T09:18:28.064Z,99.99
2023-10-12T09:19:28.013Z,99.99
2023-10-12T09:20:27.960Z,99.99
2023-10-12T09:21:27.953Z,99.99
2023-10-12T09:22:27.951Z,99.99
2023-10-12T09:23:27.942Z,99.99
2023-10-12T09:24:27.936Z,99.99
2023-10-12T09:25:27.975Z,99.99
2023-10-12T09:26:27.926Z,99.99
2023-10-12T09:27:27.995Z,99.99
2023-10-12T09:28:27.942Z,99.99
2023-10-12T09:29:27.921Z,99.99
2023-10-12T09:30:27.925Z,99.99
2023-10-12T09:31:27.973Z,99.99
2023-10-12T09:32:28.171Z,99.99
2023-10-12T09:33:27.907Z,99.99
2023-10-12T09:34:27.904Z,99.99
2023-10-12T09:35:27.902Z,99.99
2023-10-12T09:36:27.903Z,99.99
2023-10-12T09:37:27.908Z,99.99
2023-10-12T09:38:27.903Z,99.99
2023-10-12T09:39:27.894Z,99.99
2023-10-12T09:40:27.880Z,99.99
2023-10-12T09:41:27.880Z,99.99
2023-10-12T09:42:27.907Z,99.99
2023-10-12T09:43:27.874Z,99.99
2023-10-12T09:44:27.908Z,99.99
2023-10-12T09:45:35.864Z,99.99
2023-10-12T09:46:28.149Z,99.99
2023-10-12T09:47:27.918Z,99.99
2023-10-12T09:48:27.859Z,99.99
2023-10-12T09:49:27.860Z,99.99
2023-10-12T09:50:27.850Z,99.99
2023-10-12T09:51:27.847Z,99.99
2023-10-12T09:52:27.848Z,99.99
2023-10-12T09:53:27.874Z,99.99
2023-10-12T09:54:27.865Z,99.99
2023-10-12T09:55:27.835Z,99.99
2023-10-12T09:56:27.833Z,99.99
2023-10-12T09:57:27.835Z,99.99
2023-10-12T09:58:27.870Z,99.99
2023-10-12T09:59:27.842Z,99.99
2023-10-12T10:00:28.062Z,99.99
2023-10-12T10:01:27.894Z,99.99
2023-10-12T10:02:27.923Z,99.99
2023-10-12T10:03:27.927Z,99.99
2023-10-12T10:04:28.251Z,99.99
2023-10-12T10:05:27.806Z,99.99
2023-10-12T10:06:27.813Z,99.99
2023-10-12T10:07:28.010Z,99.99
2023-10-12T10:08:27.998Z,99.99
2023-10-12T10:09:27.801Z,99.99
2023-10-12T10:10:27.783Z,99.99
2023-10-12T10:11:27.988Z,99.99
2023-10-12T10:12:27.797Z,99.99
2023-10-12T10:13:27.778Z,99.99
2023-10-12T10:14:27.803Z,99.99
2023-10-12T10:15:27.779Z,99.99
2023-10-12T10:16:27.883Z,99.99
2023-10-12T10:17:27.823Z,99.99
2023-10-12T10:18:27.770Z,99.99
2023-10-12T10:19:27.764Z,99.99
2023-10-12T10:20:27.802Z,99.99
2023-10-12T10:21:27.755Z,99.99
2023-10-12T10:22:27.748Z,99.99
2023-10-12T10:23:27.775Z,99.99
2023-10-12T10:24:27.748Z,99.99
2023-10-12T10:25:27.737Z,99.99
2023-10-12T10:26:27.804Z,99.99
2023-10-12T10:27:27.770Z,99.99
2023-10-12T10:28:27.734Z,99.99
2023-10-12T10:29:27.733Z,99.99
2023-10-12T10:30:27.745Z,99.99
2023-10-12T10:31:27.837Z,99.99
2023-10-12T10:32:27.868Z,99.99
2023-10-12T10:33:27.723Z,99.99
2023-10-12T10:34:27.741Z,99.99
2023-10-12T10:35:27.709Z,99.99
2023-10-12T10:36:27.729Z,99.99
2023-10-12T10:37:27.708Z,99.99
2023-10-12T10:38:27.703Z,99.99
2023-10-12T10:39:27.703Z,99.99
2023-10-12T10:40:27.895Z,99.99
2023-10-12T10:41:27.698Z,99.99
2023-10-12T10:42:27.695Z,99.99
2023-10-12T10:43:27.692Z,99.99
2023-10-12T10:44:27.685Z,99.99
2023-10-12T10:45:27.689Z,99.99
2023-10-12T10:46:28.143Z,99.99
2023-10-12T10:47:27.711Z,99.99
2023-10-12T10:48:51.731Z,99.99
2023-10-12T10:49:33.924Z,99.99
2023-10-12T10:50:27.748Z,99.99
2023-10-12T10:51:27.670Z,99.99
2023-10-12T10:52:27.691Z,99.99
2023-10-12T10:53:27.661Z,99.99
2023-10-12T10:54:27.658Z,99.99
2023-10-12T10:55:27.653Z,99.99
2023-10-12T10:56:27.648Z,99.99
2023-10-12T10:57:27.647Z,99.99
2023-10-12T10:58:27.641Z,99.99
2023-10-12T10:59:27.642Z,99.99
2023-10-12T11:00:27.655Z,99.99
2023-10-12T11:01:27.719Z,99.99
2023-10-12T11:02:27.690Z,99.99
2023-10-12T11:03:27.841Z,99.99
2023-10-12T11:04:27.703Z,99.99
2023-10-12T11:05:27.615Z,99.99
2023-10-12T11:06:27.611Z,99.99
2023-10-12T11:07:27.604Z,99.99
2023-10-12T11:08:27.610Z,99.99
2023-10-12T11:09:27.605Z,99.99
2023-10-12T11:10:27.600Z,99.99
2023-10-12T11:11:27.592Z,99.99
2023-10-12T11:12:27.598Z,99.99
2023-10-12T11:13:27.589Z,99.99
2023-10-12T11:14:27.594Z,99.99
2023-10-12T11:15:27.622Z,99.99
2023-10-12T11:16:27.595Z,99.99
2023-10-12T11:17:27.759Z,99.99
2023-10-12T11:18:27.571Z,99.99
2023-10-12T11:19:27.569Z,99.99
2023-10-12T11:20:27.611Z,99.99
2023-10-12T11:21:27.565Z,99.99
2023-10-12T11:22:27.567Z,99.99
2023-10-12T11:23:27.552Z,99.99
2023-10-12T11:24:27.549Z,99.99
2023-10-12T11:25:27.550Z,99.99
2023-10-12T11:26:27.562Z,99.99
2023-10-12T11:27:27.543Z,99.99
2023-10-12T11:28:27.685Z,99.99
2023-10-12T11:29:27.540Z,99.99
2023-10-12T11:30:27.598Z,99.99
2023-10-12T11:31:27.609Z,99.99
2023-10-12T11:32:27.578Z,99.99
2023-10-12T11:33:27.643Z,99.99
2023-10-12T11:34:27.555Z,99.99
2023-10-12T11:35:27.520Z,99.99
2023-10-12T11:36:27.556Z,99.99
2023-10-12T11:37:27.550Z,99.99
2023-10-12T11:38:27.507Z,99.99
2023-10-12T11:39:27.513Z,99.99
2023-10-12T11:40:27.510Z,99.99
2023-10-12T11:41:27.523Z,99.99
2023-10-12T11:42:27.500Z,99.99
2023-10-12T11:43:27.489Z,99.99
2023-10-12T11:44:27.489Z,99.99
2023-10-12T11:45:27.489Z,99.99
2023-10-12T11:46:27.823Z,99.99
2023-10-12T11:47:27.495Z,99.99
2023-10-12T11:48:27.492Z,99.99
2023-10-12T11:49:27.479Z,99.99
2023-10-12T11:50:27.484Z,99.99
2023-10-12T11:51:27.522Z,99.99
2023-10-12T11:52:27.490Z,99.99
2023-10-12T11:53:27.484Z,99.99
2023-10-12T11:54:27.467Z,99.99
2023-10-12T11:55:27.511Z,99.99
2023-10-12T11:56:27.489Z,99.99
2023-10-12T11:57:27.461Z,99.99
2023-10-12T11:58:27.486Z,99.99
2023-10-12T11:59:27.660Z,99.99
2023-10-12T12:00:27.448Z,99.99
2023-10-12T12:01:27.511Z,99.99
2023-10-12T12:02:27.462Z,99.99
2023-10-12T12:03:27.465Z,99.99
2023-10-12T12:04:27.556Z,99.99
2023-10-12T12:05:27.561Z,99.99
2023-10-12T12:06:27.450Z,99.99
2023-10-12T12:07:27.430Z,99.99
2023-10-12T12:08:27.440Z,99.99
2023-10-12T12:09:27.422Z,99.99
2023-10-12T12:10:27.616Z,99.99
2023-10-12T12:11:27.409Z,99.99
2023-10-12T12:12:27.413Z,99.99
2023-10-12T12:13:27.452Z,99.99
2023-10-12T12:14:27.454Z,99.99
2023-10-12T12:15:27.417Z,99.99
2023-10-12T12:16:27.489Z,99.99
2023-10-12T12:17:27.536Z,99.99
2023-10-12T12:18:27.554Z,99.99
2023-10-12T12:19:27.437Z,99.99
2023-10-12T12:20:27.400Z,99.99
2023-10-12T12:21:27.383Z,99.99
2023-10-12T12:22:27.386Z,99.99
2023-10-12T12:23:27.389Z,99.99
2023-10-12T12:24:27.403Z,99.99
2023-10-12T12:25:27.383Z,99.99
2023-10-12T12:26:27.381Z,99.99
2023-10-12T12:27:27.375Z,99.99
2023-10-12T12:28:27.374Z,99.99
2023-10-12T12:29:32.732Z,99.99
2023-10-12T12:31:27.429Z,99.99
2023-10-12T12:32:27.427Z,99.99
2023-10-12T12:33:27.361Z,99.99
2023-10-12T12:34:27.394Z,99.99
2023-10-12T12:35:27.387Z,99.99
2023-10-12T12:36:27.357Z,99.99
2023-10-12T12:37:27.352Z,99.99
2023-10-12T12:38:27.451Z,99.99
2023-10-12T12:39:27.337Z,99.99
2023-10-12T12:40:27.379Z,99.99
2023-10-12T12:41:27.334Z,99.99
2023-10-12T12:42:27.330Z,99.99
2023-10-12T12:43:27.342Z,99.99
2023-10-12T12:44:27.325Z,99.99
2023-10-12T12:45:27.324Z,99.99
2023-10-12T12:46:27.506Z,99.99
2023-10-12T12:47:27.335Z,99.99
2023-10-12T12:48:27.316Z,99.99
2023-10-12T12:49:27.308Z,99.99
2023-10-12T12:50:27.309Z,99.99
2023-10-12T12:51:27.320Z,99.99
2023-10-12T12:52:27.307Z,99.99
2023-10-12T12:53:27.304Z,99.99